createdAt,value
2023-05-14T00:01:12.578Z,90.70
2023-05-14T00:03:45.318Z,90.80
2023-05-14T00:06:18.322Z,90.90
2023-05-14T00:08:51.063Z,91.10
2023-05-14T00:11:24.055Z,91.30
2023-05-14T00:13:56.622Z,91.60
2023-05-14T00:16:29.652Z,91.90
2023-05-14T00:19:02.211Z,91.90
2023-05-14T00:21:35.121Z,92.00
2023-05-14T00:24:07.972Z,92.30
2023-05-14T00:26:40.898Z,92.50
2023-05-14T00:29:13.496Z,93.00
2023-05-14T00:31:46.522Z,93.40
2023-05-14T00:34:19.221Z,93.90
2023-05-14T00:36:52.132Z,94.40
2023-05-14T00:39:24.873Z,94.80
2023-05-14T00:41:57.794Z,95.30
2023-05-14T00:44:30.513Z,95.50
2023-05-14T00:47:04.050Z,96.10
2023-05-14T00:49:36.971Z,96.20
2023-05-14T00:52:11.658Z,96.70
2023-05-14T00:54:46.947Z,97.60
2023-05-14T00:57:20.105Z,97.60
2023-05-14T00:59:52.990Z,97.20
2023-05-14T01:02:26.529Z,97.30
2023-05-14T01:04:59.233Z,97.70
2023-05-14T01:07:44.124Z,98.00
2023-05-14T01:10:32.645Z,97.90
2023-05-14T01:13:43.182Z,98.20
2023-05-14T01:16:19.449Z,98.90
2023-05-14T01:18:54.328Z,99.10
2023-05-14T01:21:35.137Z,99.10
2023-05-14T01:24:08.877Z,99.60
2023-05-14T01:26:41.475Z,99.90
2023-05-14T01:29:23.529Z,99.90
2023-05-14T01:32:00.775Z,99.90
2023-05-14T01:34:36.503Z,99.90
2023-05-14T01:37:12.428Z,99.90
2023-05-14T01:39:46.057Z,99.90
2023-05-14T01:42:18.671Z,99.90
2023-05-14T01:44:52.185Z,99.90
2023-05-14T01:47:24.833Z,99.90
2023-05-14T01:49:57.870Z,99.90
2023-05-14T01:52:30.562Z,99.90
2023-05-14T01:55:05.186Z,99.90
2023-05-14T01:57:37.917Z,99.90
2023-05-14T02:00:11.620Z,99.90
2023-05-14T02:02:44.381Z,99.90
2023-05-14T02:05:17.635Z,99.90
2023-05-14T02:07:50.198Z,99.90
2023-05-14T02:10:23.263Z,99.90
2023-05-14T02:12:56.398Z,99.90
2023-05-14T02:15:29.286Z,99.90
2023-05-14T02:18:01.898Z,99.90
2023-05-14T02:20:35.382Z,99.90
2023-05-14T02:23:07.899Z,99.90
2023-05-14T02:25:40.723Z,99.90
2023-05-14T02:28:13.346Z,99.90
2023-05-14T02:30:46.284Z,99.90
2023-05-14T02:33:18.983Z,99.90
2023-05-14T02:40:01.376Z,99.90
2023-05-14T02:42:35.646Z,99.90
2023-05-14T02:45:08.826Z,99.90
2023-05-14T02:47:41.907Z,99.90
2023-05-14T02:50:15.042Z,99.90
2023-05-14T02:52:47.548Z,99.90
2023-05-14T02:55:21.442Z,99.90
2023-05-14T02:57:54.103Z,99.90
2023-05-14T03:00:26.937Z,99.90
2023-05-14T03:02:59.967Z,99.90
2023-05-14T03:05:33.292Z,99.90
2023-05-14T03:08:06.790Z,99.90
2023-05-14T03:10:39.649Z,99.90
2023-05-14T03:13:12.278Z,99.90
2023-05-14T03:15:45.246Z,99.90
2023-05-14T03:18:17.962Z,99.90
2023-05-14T03:20:50.838Z,99.90
2023-05-14T03:23:23.484Z,99.90
2023-05-14T03:25:56.790Z,99.90
2023-05-14T03:28:29.424Z,99.90
2023-05-14T03:31:02.435Z,99.90
2023-05-14T03:33:35.118Z,99.90
2023-05-14T03:36:08.078Z,99.90
2023-05-14T03:38:40.600Z,99.90
2023-05-14T03:41:13.446Z,99.90
2023-05-14T03:43:46.032Z,99.90
2023-05-14T03:46:18.871Z,99.90
2023-05-14T03:48:51.447Z,99.90
2023-05-14T03:51:24.383Z,99.90
2023-05-14T03:53:58.265Z,99.90
2023-05-14T03:56:31.125Z,99.90
2023-05-14T03:59:03.683Z,99.90
2023-05-14T04:01:36.478Z,99.90
2023-05-14T04:04:09.121Z,99.90
2023-05-14T04:06:41.970Z,99.90
2023-05-14T04:09:14.537Z,99.90
2023-05-14T04:11:47.361Z,99.90
2023-05-14T04:14:19.912Z,99.90
2023-05-14T04:16:53.120Z,99.90
2023-05-14T04:19:25.779Z,99.90
2023-05-14T04:21:58.647Z,99.90
2023-05-14T04:24:31.201Z,99.90
2023-05-14T04:27:04.690Z,99.90
2023-05-14T04:29:37.558Z,99.90
2023-05-14T04:32:10.682Z,99.90
2023-05-14T04:34:43.407Z,99.90
2023-05-14T04:37:16.557Z,99.90
2023-05-14T04:39:49.225Z,99.90
2023-05-14T04:42:22.316Z,99.90
2023-05-14T04:44:54.829Z,99.90
2023-05-14T04:47:27.769Z,99.90
2023-05-14T04:50:00.470Z,99.90
2023-05-14T04:52:33.415Z,99.90
2023-05-14T04:55:06.773Z,99.90
2023-05-14T04:57:39.626Z,99.90
2023-05-14T05:00:13.301Z,99.90
2023-05-14T05:02:46.520Z,99.90
2023-05-14T05:05:19.181Z,99.90
2023-05-14T05:07:52.022Z,99.90
2023-05-14T05:10:24.909Z,99.90
2023-05-14T05:12:57.978Z,99.90
2023-05-14T05:15:30.690Z,99.90
2023-05-14T05:18:03.667Z,99.90
2023-05-14T05:20:36.309Z,99.70
2023-05-14T05:23:09.355Z,99.20
2023-05-14T05:25:41.867Z,99.00
2023-05-14T05:28:14.716Z,98.50
2023-05-14T05:30:47.357Z,98.20
2023-05-14T05:33:20.294Z,97.50
2023-05-14T05:35:52.885Z,97.00
2023-05-14T05:38:26.093Z,96.80
2023-05-14T05:40:58.669Z,96.40
2023-05-14T05:43:33.611Z,96.80
2023-05-14T05:46:06.837Z,96.30
2023-05-14T05:48:39.697Z,96.10
2023-05-14T05:51:12.300Z,96.40
2023-05-14T05:53:45.141Z,95.70
2023-05-14T05:56:17.634Z,95.60
2023-05-14T05:58:50.575Z,95.60
2023-05-14T06:01:23.240Z,95.70
2023-05-14T06:03:56.470Z,95.40
2023-05-14T06:06:29.173Z,95.10
2023-05-14T06:09:02.148Z,95.10
2023-05-14T06:11:35.457Z,95.10
2023-05-14T06:14:08.319Z,94.60
2023-05-14T06:16:41.046Z,94.70
2023-05-14T06:19:14.508Z,93.90
2023-05-14T06:21:47.158Z,93.10
2023-05-14T06:24:20.493Z,92.50
2023-05-14T06:26:53.139Z,90.70
2023-05-14T06:29:26.152Z,88.40
2023-05-14T06:32:03.125Z,86.50
2023-05-14T06:34:36.098Z,85.00
2023-05-14T06:37:09.702Z,82.50
2023-05-14T06:39:50.223Z,80.10
2023-05-14T06:42:22.921Z,79.40
2023-05-14T06:44:56.111Z,77.90
2023-05-14T06:47:28.705Z,74.60
2023-05-14T06:50:02.039Z,74.50
2023-05-14T06:52:34.696Z,75.60
2023-05-14T06:55:10.881Z,74.10
2023-05-14T06:57:44.180Z,74.60
2023-05-14T07:00:17.748Z,72.70
2023-05-14T07:02:50.454Z,72.50
2023-05-14T07:05:23.421Z,70.00
2023-05-14T07:07:56.064Z,71.70
2023-05-14T07:10:28.942Z,70.50
2023-05-14T07:13:01.702Z,69.90
2023-05-14T07:15:35.290Z,69.40
2023-05-14T07:18:07.830Z,69.00
2023-05-14T07:20:40.965Z,69.40
2023-05-14T07:23:13.534Z,69.70
2023-05-14T07:25:46.656Z,69.00
2023-05-14T07:28:19.232Z,68.40
2023-05-14T07:30:52.037Z,69.00
2023-05-14T07:33:24.740Z,68.20
2023-05-14T07:35:57.726Z,68.10
2023-05-14T07:38:32.140Z,68.20
2023-05-14T07:41:05.325Z,68.50
2023-05-14T07:43:38.899Z,68.40
2023-05-14T07:46:12.088Z,67.20
2023-05-14T07:48:44.641Z,67.00
2023-05-14T07:51:17.695Z,67.20
2023-05-14T07:53:50.220Z,68.10
2023-05-14T07:56:23.490Z,67.80
2023-05-14T07:58:56.627Z,67.70
2023-05-14T08:01:29.407Z,65.00
2023-05-14T08:04:02.084Z,65.60
2023-05-14T08:06:35.090Z,67.30
2023-05-14T08:09:08.765Z,66.60
2023-05-14T08:11:41.604Z,65.70
2023-05-14T08:14:14.111Z,65.20
2023-05-14T08:16:47.624Z,63.10
2023-05-14T08:19:20.266Z,63.90
2023-05-14T08:21:53.160Z,62.70
2023-05-14T08:24:26.001Z,63.40
2023-05-14T08:26:58.793Z,62.50
2023-05-14T08:29:31.417Z,61.50
2023-05-14T08:32:15.517Z,62.50
2023-05-14T08:34:52.516Z,61.80
2023-05-14T08:37:26.669Z,60.40
2023-05-14T08:39:59.363Z,62.00
2023-05-14T08:42:32.553Z,61.70
2023-05-14T08:45:10.532Z,61.40
2023-05-14T08:47:47.353Z,60.60
2023-05-14T08:50:22.716Z,60.60
2023-05-14T08:52:56.329Z,58.90
2023-05-14T08:55:29.944Z,57.50
2023-05-14T08:58:02.794Z,58.20
2023-05-14T09:00:35.905Z,57.90
2023-05-14T09:03:09.794Z,58.40
2023-05-14T09:05:42.798Z,57.30
2023-05-14T09:08:15.753Z,57.20
2023-05-14T09:10:48.310Z,56.70
2023-05-14T09:13:22.562Z,54.60
2023-05-14T09:15:55.962Z,55.50
2023-05-14T09:18:28.930Z,56.00
2023-05-14T09:21:01.977Z,55.90
2023-05-14T09:23:34.801Z,55.00
2023-05-14T09:26:07.287Z,55.00
2023-05-14T09:28:41.976Z,52.30
2023-05-14T09:31:14.646Z,53.30
2023-05-14T09:33:51.447Z,52.60
2023-05-14T09:36:30.938Z,52.10
2023-05-14T09:39:04.944Z,50.80
2023-05-14T09:41:37.509Z,50.30
2023-05-14T09:44:10.345Z,50.50
2023-05-14T09:46:42.857Z,50.50
2023-05-14T09:49:15.954Z,51.00
2023-05-14T09:51:51.553Z,49.00
2023-05-14T09:54:26.814Z,49.50
2023-05-14T09:56:59.320Z,50.70
2023-05-14T09:59:32.152Z,51.40
2023-05-14T10:02:07.252Z,51.30
2023-05-14T10:04:40.643Z,52.30
2023-05-14T10:07:13.738Z,51.20
2023-05-14T10:09:46.790Z,51.70
2023-05-14T10:12:23.350Z,51.20
2023-05-14T10:14:59.464Z,50.90
2023-05-14T10:17:34.677Z,50.40
2023-05-14T10:20:09.514Z,50.40
2023-05-14T10:22:42.464Z,50.80
2023-05-14T10:25:15.727Z,51.10
2023-05-14T10:30:49.689Z,48.70
2023-05-14T10:33:22.229Z,49.30
2023-05-14T10:36:05.767Z,48.50
2023-05-14T10:38:38.787Z,49.00
2023-05-14T10:41:18.154Z,49.40
2023-05-14T10:43:50.848Z,48.40
2023-05-14T10:46:23.835Z,48.10
2023-05-14T10:48:57.263Z,48.50
2023-05-14T10:51:31.529Z,47.20
2023-05-14T10:54:04.130Z,47.90
2023-05-14T10:56:37.344Z,48.10
2023-05-14T10:59:11.563Z,48.20
2023-05-14T11:01:45.700Z,48.70
2023-05-14T11:04:24.827Z,48.50
2023-05-14T11:06:58.570Z,48.40
2023-05-14T11:09:31.213Z,49.20
2023-05-14T11:12:04.828Z,48.60
2023-05-14T11:14:37.452Z,48.30
2023-05-14T11:17:10.678Z,48.70
2023-05-14T11:19:45.109Z,50.20
2023-05-14T11:22:17.986Z,49.50
2023-05-14T11:24:51.150Z,49.30
2023-05-14T11:27:24.274Z,49.20
2023-05-14T11:29:58.195Z,50.10
2023-05-14T11:32:35.188Z,48.50
2023-05-14T11:35:08.439Z,48.00
2023-05-14T11:37:41.539Z,47.10
2023-05-14T11:40:17.454Z,47.40
2023-05-14T11:42:53.747Z,47.10
2023-05-14T11:45:27.756Z,46.50
2023-05-14T11:48:00.826Z,46.70
2023-05-14T11:50:36.600Z,46.50
2023-05-14T11:53:09.430Z,46.60
2023-05-14T11:55:41.981Z,47.60
2023-05-14T11:58:15.939Z,46.80
2023-05-14T12:00:52.645Z,47.70
2023-05-14T12:03:26.810Z,46.70
2023-05-14T12:06:01.043Z,45.70
2023-05-14T12:08:34.076Z,45.50
2023-05-14T12:11:07.076Z,46.20
2023-05-14T12:13:40.088Z,46.80
2023-05-14T12:16:13.350Z,46.30
2023-05-14T12:18:46.455Z,46.80
2023-05-14T12:21:19.043Z,46.50
2023-05-14T12:24:00.313Z,46.60
2023-05-14T12:26:33.902Z,47.00
2023-05-14T12:29:09.663Z,47.30
2023-05-14T12:31:50.012Z,46.70
2023-05-14T12:34:22.840Z,47.50
2023-05-14T12:36:55.490Z,47.50
2023-05-14T12:39:28.466Z,46.70
2023-05-14T12:42:01.704Z,46.00
2023-05-14T12:44:34.512Z,45.60
2023-05-14T12:47:07.278Z,47.10
2023-05-14T12:49:40.387Z,46.30
2023-05-14T12:54:48.504Z,45.60
2023-05-14T12:57:20.992Z,46.80
2023-05-14T12:59:54.153Z,47.10
2023-05-14T13:02:26.667Z,46.40
2023-05-14T13:05:00.211Z,46.70
2023-05-14T13:07:32.789Z,46.50
2023-05-14T13:10:06.188Z,47.00
2023-05-14T13:12:38.860Z,46.40
2023-05-14T13:15:11.899Z,46.00
2023-05-14T13:17:44.527Z,46.80
2023-05-14T13:20:18.431Z,47.00
2023-05-14T13:22:53.298Z,47.00
2023-05-14T13:25:28.815Z,46.00
2023-05-14T13:28:01.321Z,46.60
2023-05-14T13:30:34.143Z,47.00
2023-05-14T13:33:06.708Z,46.10
2023-05-14T13:35:39.526Z,46.50
2023-05-14T13:38:12.004Z,46.40
2023-05-14T13:40:44.757Z,46.00
2023-05-14T13:43:17.283Z,46.00
2023-05-14T13:45:51.360Z,46.20
2023-05-14T13:48:24.818Z,47.50
2023-05-14T13:50:59.807Z,46.50
2023-05-14T13:53:32.532Z,46.80
2023-05-14T13:56:11.126Z,46.90
2023-05-14T13:58:43.654Z,47.10
2023-05-14T14:01:16.420Z,47.70
2023-05-14T14:03:49.055Z,46.50
2023-05-14T14:06:21.837Z,46.70
2023-05-14T14:08:54.460Z,46.70
2023-05-14T14:11:27.879Z,46.30
2023-05-14T14:14:00.352Z,46.10
2023-05-14T14:16:33.255Z,45.20
2023-05-14T14:19:08.682Z,45.20
2023-05-14T14:21:42.833Z,44.70
2023-05-14T14:24:15.450Z,45.40
2023-05-14T14:26:48.210Z,44.90
2023-05-14T14:29:22.836Z,44.70
2023-05-14T14:31:55.845Z,44.80
2023-05-14T14:34:28.705Z,45.30
2023-05-14T14:37:01.667Z,44.50
2023-05-14T14:39:34.538Z,44.70
2023-05-14T14:42:07.518Z,45.20
2023-05-14T14:44:40.054Z,45.10
2023-05-14T14:47:12.811Z,45.50
2023-05-14T14:49:45.398Z,46.10
2023-05-14T14:52:20.747Z,45.70
2023-05-14T14:54:56.042Z,45.10
2023-05-14T14:57:28.888Z,44.50
2023-05-14T15:00:02.698Z,43.70
2023-05-14T15:02:38.472Z,42.50
2023-05-14T15:05:11.080Z,41.60
2023-05-14T15:07:43.918Z,41.90
2023-05-14T15:10:16.458Z,42.10
2023-05-14T15:12:49.334Z,42.40
2023-05-14T15:15:22.242Z,43.20
2023-05-14T15:17:56.374Z,43.40
2023-05-14T15:20:29.001Z,43.40
2023-05-14T15:23:01.838Z,43.10
2023-05-14T15:25:34.466Z,42.70
2023-05-14T15:28:07.804Z,43.60
2023-05-14T15:30:40.530Z,43.80
2023-05-14T15:33:19.571Z,44.10
2023-05-14T15:35:52.539Z,44.10
2023-05-14T15:38:25.392Z,44.30
2023-05-14T15:40:58.061Z,43.90
2023-05-14T15:43:30.839Z,43.70
2023-05-14T15:46:03.457Z,44.00
2023-05-14T15:48:36.317Z,43.20
2023-05-14T15:51:08.803Z,43.20
2023-05-14T15:53:41.608Z,42.60
2023-05-14T15:56:14.308Z,41.20
2023-05-14T15:58:47.097Z,41.40
2023-05-14T16:01:19.712Z,41.90
2023-05-14T16:04:00.374Z,42.30
2023-05-14T16:06:35.653Z,41.60
2023-05-14T16:09:09.327Z,40.80
2023-05-14T16:11:42.410Z,40.20
2023-05-14T16:14:15.228Z,39.50
2023-05-14T16:16:47.785Z,39.10
2023-05-14T16:19:20.989Z,39.60
2023-05-14T16:21:53.572Z,39.20
2023-05-14T16:24:29.036Z,38.90
2023-05-14T16:27:01.563Z,39.90
2023-05-14T16:29:34.348Z,40.30
2023-05-14T16:32:07.246Z,40.50
2023-05-14T16:34:40.634Z,40.90
2023-05-14T16:37:13.852Z,42.30
2023-05-14T16:39:46.714Z,41.70
2023-05-14T16:42:19.294Z,41.80
2023-05-14T16:44:52.067Z,41.80
2023-05-14T16:47:24.597Z,42.90
2023-05-14T16:49:57.645Z,42.60
2023-05-14T16:52:30.968Z,42.40
2023-05-14T16:55:04.472Z,43.20
2023-05-14T16:57:39.785Z,43.80
2023-05-14T17:00:13.225Z,44.50
2023-05-14T17:02:49.176Z,44.60
2023-05-14T17:05:22.244Z,45.00
2023-05-14T17:07:54.865Z,45.20
2023-05-14T17:10:27.995Z,45.70
2023-05-14T17:13:00.963Z,46.20
2023-05-14T17:15:51.917Z,46.60
2023-05-14T17:18:25.050Z,47.10
2023-05-14T17:20:57.852Z,47.30
2023-05-14T17:23:30.376Z,47.20
2023-05-14T17:26:03.261Z,47.50
2023-05-14T17:28:35.776Z,47.30
2023-05-14T17:31:11.059Z,48.60
2023-05-14T17:33:43.618Z,48.40
2023-05-14T17:36:16.501Z,48.80
2023-05-14T17:38:49.075Z,49.40
2023-05-14T17:41:21.945Z,49.50
2023-05-14T17:43:54.510Z,50.40
2023-05-14T17:46:27.487Z,50.40
2023-05-14T17:49:00.140Z,50.70
2023-05-14T17:51:33.173Z,51.10
2023-05-14T17:54:06.080Z,51.40
2023-05-14T17:56:39.266Z,51.70
2023-05-14T17:59:14.261Z,51.80
2023-05-14T18:01:47.341Z,52.10
2023-05-14T18:04:20.083Z,52.60
2023-05-14T18:06:55.887Z,53.00
2023-05-14T18:09:28.353Z,53.30
2023-05-14T18:12:01.138Z,53.60
2023-05-14T18:14:33.666Z,53.80
2023-05-14T18:17:06.771Z,54.00
2023-05-14T18:19:41.039Z,54.40
2023-05-14T18:22:13.910Z,55.00
2023-05-14T18:24:46.592Z,54.80
2023-05-14T18:27:19.497Z,55.30
2023-05-14T18:29:52.014Z,55.90
2023-05-14T18:32:24.882Z,57.30
2023-05-14T18:34:57.359Z,56.70
2023-05-14T18:37:30.136Z,56.60
2023-05-14T18:40:04.666Z,56.70
2023-05-14T18:42:37.627Z,57.10
2023-05-14T18:45:10.718Z,57.60
2023-05-14T18:47:43.638Z,58.00
2023-05-14T18:50:16.289Z,58.50
2023-05-14T18:52:52.102Z,58.70
2023-05-14T18:55:24.865Z,59.20
2023-05-14T18:57:58.158Z,59.50
2023-05-14T19:00:30.772Z,59.80
2023-05-14T19:03:03.681Z,60.70
2023-05-14T19:05:36.192Z,61.30
2023-05-14T19:08:09.033Z,61.20
2023-05-14T19:10:41.508Z,61.30
2023-05-14T19:13:16.344Z,61.40
2023-05-14T19:15:51.687Z,61.80
2023-05-14T19:18:24.514Z,62.30
2023-05-14T19:20:57.201Z,62.30
2023-05-14T19:23:31.320Z,62.80
2023-05-14T19:26:04.339Z,63.30
2023-05-14T19:28:40.015Z,63.60
2023-05-14T19:31:14.541Z,64.20
2023-05-14T19:33:48.173Z,64.60
2023-05-14T19:36:21.280Z,65.30
2023-05-14T19:38:54.095Z,65.30
2023-05-14T19:41:27.624Z,65.50
2023-05-14T19:44:00.573Z,65.80
2023-05-14T19:46:33.193Z,66.00
2023-05-14T19:49:05.949Z,66.70
2023-05-14T19:51:38.537Z,67.20
2023-05-14T19:54:11.593Z,67.60
2023-05-14T19:56:44.068Z,67.90
2023-05-14T19:59:16.796Z,68.00
2023-05-14T20:01:49.290Z,69.10
2023-05-14T20:04:22.362Z,69.00
2023-05-14T20:06:54.924Z,69.30
2023-05-14T20:09:27.673Z,69.80
2023-05-14T20:12:00.146Z,70.50
2023-05-14T20:14:32.910Z,70.70
2023-05-14T20:17:05.823Z,70.60
2023-05-14T20:19:38.774Z,71.60
2023-05-14T20:22:11.359Z,71.80
2023-05-14T20:24:44.600Z,71.70
2023-05-14T20:27:17.179Z,72.30
2023-05-14T20:29:51.666Z,72.30
2023-05-14T20:32:25.158Z,72.60
2023-05-14T20:35:02.006Z,72.90
2023-05-14T20:37:34.799Z,73.40
2023-05-14T20:40:10.478Z,73.30
2023-05-14T20:42:43.434Z,73.30
2023-05-14T20:45:16.810Z,73.70
2023-05-14T20:47:49.463Z,73.50
2023-05-14T20:50:23.805Z,73.60
2023-05-14T20:52:59.026Z,73.80
2023-05-14T20:55:31.934Z,73.80
2023-05-14T20:58:04.445Z,74.10
2023-05-14T21:00:37.353Z,74.30
2023-05-14T21:03:10.084Z,74.50
2023-05-14T21:05:43.811Z,74.40
2023-05-14T21:08:18.420Z,74.70
2023-05-14T21:10:51.277Z,74.60
2023-05-14T21:13:23.858Z,75.10
2023-05-14T21:15:56.662Z,74.80
2023-05-14T21:18:32.652Z,74.70
2023-05-14T21:21:07.835Z,75.00
2023-05-14T21:23:40.391Z,75.10
2023-05-14T21:26:13.195Z,75.40
2023-05-14T21:28:45.708Z,75.40
2023-05-14T21:31:18.600Z,75.30
2023-05-14T21:33:51.124Z,75.10
2023-05-14T21:36:24.293Z,75.30
2023-05-14T21:38:56.950Z,75.00
2023-05-14T21:41:31.728Z,74.80
2023-05-14T21:44:04.208Z,75.00
2023-05-14T21:46:37.024Z,75.10
2023-05-14T21:49:12.229Z,75.00
2023-05-14T21:51:45.059Z,75.00
2023-05-14T21:54:18.050Z,75.00
2023-05-14T21:56:50.994Z,74.90
2023-05-14T21:59:23.455Z,74.80
2023-05-14T22:02:06.765Z,74.70
2023-05-14T22:04:40.575Z,74.60
2023-05-14T22:07:13.396Z,74.50
2023-05-14T22:09:45.878Z,74.40
2023-05-14T22:12:18.673Z,74.40
2023-05-14T22:14:51.238Z,74.50
2023-05-14T22:17:24.112Z,74.50
2023-05-14T22:19:56.924Z,74.60
2023-05-14T22:22:29.683Z,74.70
2023-05-14T22:25:02.793Z,74.50
2023-05-14T22:27:35.550Z,74.30
2023-05-14T22:30:08.512Z,74.20
2023-05-14T22:32:41.674Z,74.30
2023-05-14T22:35:14.316Z,74.50
2023-05-14T22:37:47.067Z,74.30
2023-05-14T22:40:19.605Z,74.50
2023-05-14T22:42:52.371Z,74.60
2023-05-14T22:45:27.406Z,74.60
2023-05-14T22:48:00.330Z,74.50
2023-05-14T22:50:33.076Z,74.50
2023-05-14T22:53:05.836Z,74.70
2023-05-14T22:55:38.448Z,74.70
2023-05-14T22:58:13.560Z,74.60
2023-05-14T23:00:49.083Z,74.70
2023-05-14T23:03:21.916Z,75.00
2023-05-14T23:05:54.417Z,74.60
2023-05-14T23:08:27.193Z,74.40
2023-05-14T23:10:59.718Z,74.80
2023-05-14T23:13:32.516Z,75.10
2023-05-14T23:16:06.095Z,74.50
2023-05-14T23:18:39.050Z,74.60
2023-05-14T23:21:12.892Z,74.80
2023-05-14T23:23:46.732Z,74.70
2023-05-14T23:26:19.288Z,75.70
2023-05-14T23:28:52.156Z,74.90
2023-05-14T23:31:24.698Z,75.30
2023-05-14T23:33:57.471Z,75.00
2023-05-14T23:36:31.533Z,75.10
2023-05-14T23:39:04.394Z,75.40
2023-05-14T23:41:36.918Z,75.20
2023-05-14T23:44:09.712Z,75.20
2023-05-14T23:46:42.206Z,75.20
2023-05-14T23:49:15.016Z,75.50
2023-05-14T23:51:47.516Z,75.20
2023-05-14T23:54:21.220Z,75.10
2023-05-14T23:56:53.796Z,75.10
2023-05-14T23:59:26.734Z,75.30
